METAR = EDDE 160550Z 27009KT 9999 BKN015 11/09 Q1017 TEMPO BKN014

TAF = TAF EDDE 160500Z 1606/1706 29009KT 9999 BKN020 TEMPO 1606/1609 BKN013 BECMG 1700/1702 26004KT

METAR EDDE Decoded:

STATION........ EDDE
OBSERVED....... Tue Jul 16, 07:50 MEST
NOW............ Tue Jul 16, 08:22 MEST
AGE............ 32 min ago
WIND........... W at 17 km/h
VISIBILITY..... 16 miles
CLOUDS......... mostly cloudy
TEMP........... 52°F (11°C)
DEWPT.......... 48°F (9°C)
HUMIDITY....... 88%
BAROMETER...... 1017 hPa (30.03 in Hg)


ICAO-Code: